sensor_id;sensor_type;location;lat;lon;timestamp;pressure;altitude;pressure_sealevel;temperature
28305;BMP280;15569;42.652;23.040;2024-03-17T00:01:36;93165.81;;;8.27
28305;BMP280;15569;42.652;23.040;2024-03-17T00:04:02;93181.31;;;8.15
28305;BMP280;15569;42.652;23.040;2024-03-17T00:06:27;93162.22;;;8.13
28305;BMP280;15569;42.652;23.040;2024-03-17T00:08:53;93178.91;;;8.31
28305;BMP280;15569;42.652;23.040;2024-03-17T00:11:19;93176.97;;;8.22
28305;BMP280;15569;42.652;23.040;2024-03-17T00:13:45;93175.91;;;8.15
28305;BMP280;15569;42.652;23.040;2024-03-17T00:16:10;93171.88;;;7.95
28305;BMP280;15569;42.652;23.040;2024-03-17T00:18:47;93175.50;;;7.88
28305;BMP280;15569;42.652;23.040;2024-03-17T00:21:12;93173.31;;;7.75
28305;BMP280;15569;42.652;23.040;2024-03-17T00:23:39;93173.84;;;7.83
28305;BMP280;15569;42.652;23.040;2024-03-17T00:26:04;93167.38;;;7.88
28305;BMP280;15569;42.652;23.040;2024-03-17T00:28:29;93171.19;;;7.94
28305;BMP280;15569;42.652;23.040;2024-03-17T00:30:55;93165.59;;;7.81
28305;BMP280;15569;42.652;23.040;2024-03-17T00:33:20;93164.28;;;7.61
28305;BMP280;15569;42.652;23.040;2024-03-17T00:35:46;93163.00;;;7.62
28305;BMP280;15569;42.652;23.040;2024-03-17T00:38:11;93158.47;;;7.76
28305;BMP280;15569;42.652;23.040;2024-03-17T00:40:38;93162.53;;;7.65
28305;BMP280;15569;42.652;23.040;2024-03-17T00:43:03;93163.28;;;7.56
28305;BMP280;15569;42.652;23.040;2024-03-17T00:45:29;93171.25;;;7.64
28305;BMP280;15569;42.652;23.040;2024-03-17T00:47:54;93170.25;;;7.59
28305;BMP280;15569;42.652;23.040;2024-03-17T00:50:20;93173.09;;;7.61
28305;BMP280;15569;42.652;23.040;2024-03-17T00:52:45;93163.16;;;7.54
28305;BMP280;15569;42.652;23.040;2024-03-17T00:55:10;93161.84;;;7.34
28305;BMP280;15569;42.652;23.040;2024-03-17T00:57:36;93171.03;;;7.40
28305;BMP280;15569;42.652;23.040;2024-03-17T01:00:03;93173.03;;;7.40
28305;BMP280;15569;42.652;23.040;2024-03-17T01:02:29;93164.34;;;7.41
28305;BMP280;15569;42.652;23.040;2024-03-17T01:04:55;93169.78;;;7.41
28305;BMP280;15569;42.652;23.040;2024-03-17T01:07:20;93163.69;;;7.31
28305;BMP280;15569;42.652;23.040;2024-03-17T01:09:47;93166.25;;;7.29
28305;BMP280;15569;42.652;23.040;2024-03-17T01:12:13;93167.94;;;7.34
28305;BMP280;15569;42.652;23.040;2024-03-17T01:14:39;93163.13;;;7.33
28305;BMP280;15569;42.652;23.040;2024-03-17T01:17:13;93165.44;;;7.17
28305;BMP280;15569;42.652;23.040;2024-03-17T01:19:38;93171.44;;;7.16
28305;BMP280;15569;42.652;23.040;2024-03-17T01:22:04;93173.66;;;6.98
28305;BMP280;15569;42.652;23.040;2024-03-17T01:24:29;93179.31;;;6.93
28305;BMP280;15569;42.652;23.040;2024-03-17T01:26:59;93178.59;;;7.02
28305;BMP280;15569;42.652;23.040;2024-03-17T01:29:25;93177.50;;;6.95
28305;BMP280;15569;42.652;23.040;2024-03-17T01:31:50;93176.34;;;6.98
28305;BMP280;15569;42.652;23.040;2024-03-17T01:34:16;93170.66;;;6.94
28305;BMP280;15569;42.652;23.040;2024-03-17T01:36:42;93174.22;;;6.87
28305;BMP280;15569;42.652;23.040;2024-03-17T01:39:07;93162.28;;;6.81
28305;BMP280;15569;42.652;23.040;2024-03-17T01:41:33;93166.00;;;6.76
28305;BMP280;15569;42.652;23.040;2024-03-17T01:43:58;93166.84;;;6.78
28305;BMP280;15569;42.652;23.040;2024-03-17T01:46:24;93172.69;;;6.74
28305;BMP280;15569;42.652;23.040;2024-03-17T01:48:50;93173.78;;;6.81
28305;BMP280;15569;42.652;23.040;2024-03-17T01:51:15;93174.69;;;6.74
28305;BMP280;15569;42.652;23.040;2024-03-17T01:53:41;93176.69;;;6.64
28305;BMP280;15569;42.652;23.040;2024-03-17T01:56:10;93171.56;;;6.68
28305;BMP280;15569;42.652;23.040;2024-03-17T01:58:36;93163.47;;;6.68
28305;BMP280;15569;42.652;23.040;2024-03-17T02:01:01;93160.88;;;6.70
28305;BMP280;15569;42.652;23.040;2024-03-17T02:03:29;93172.56;;;6.63
28305;BMP280;15569;42.652;23.040;2024-03-17T02:05:55;93164.63;;;6.65
28305;BMP280;15569;42.652;23.040;2024-03-17T02:08:20;93163.47;;;6.49
28305;BMP280;15569;42.652;23.040;2024-03-17T02:10:55;93169.03;;;6.41
28305;BMP280;15569;42.652;23.040;2024-03-17T02:13:23;93178.69;;;6.44
28305;BMP280;15569;42.652;23.040;2024-03-17T02:15:49;93160.78;;;6.58
28305;BMP280;15569;42.652;23.040;2024-03-17T02:18:14;93161.09;;;6.53
28305;BMP280;15569;42.652;23.040;2024-03-17T02:20:40;93163.88;;;6.55
28305;BMP280;15569;42.652;23.040;2024-03-17T02:23:20;93166.59;;;6.64
28305;BMP280;15569;42.652;23.040;2024-03-17T02:25:45;93166.59;;;6.55
28305;BMP280;15569;42.652;23.040;2024-03-17T02:28:12;93165.75;;;6.52
28305;BMP280;15569;42.652;23.040;2024-03-17T02:30:37;93160.22;;;6.50
28305;BMP280;15569;42.652;23.040;2024-03-17T02:33:02;93170.19;;;6.38
28305;BMP280;15569;42.652;23.040;2024-03-17T02:35:28;93160.22;;;6.31
28305;BMP280;15569;42.652;23.040;2024-03-17T02:37:53;93161.50;;;6.40
28305;BMP280;15569;42.652;23.040;2024-03-17T02:40:19;93166.31;;;6.41
28305;BMP280;15569;42.652;23.040;2024-03-17T02:42:44;93162.22;;;6.40
28305;BMP280;15569;42.652;23.040;2024-03-17T02:45:11;93164.31;;;6.42
28305;BMP280;15569;42.652;23.040;2024-03-17T02:47:37;93171.28;;;6.45
28305;BMP280;15569;42.652;23.040;2024-03-17T02:50:03;93150.13;;;6.32
28305;BMP280;15569;42.652;23.040;2024-03-17T02:52:29;93164.75;;;6.29
28305;BMP280;15569;42.652;23.040;2024-03-17T02:54:55;93168.00;;;6.27
28305;BMP280;15569;42.652;23.040;2024-03-17T02:57:21;93165.47;;;6.29
28305;BMP280;15569;42.652;23.040;2024-03-17T02:59:49;93164.75;;;6.29
28305;BMP280;15569;42.652;23.040;2024-03-17T03:02:15;93165.03;;;6.33
28305;BMP280;15569;42.652;23.040;2024-03-17T03:04:40;93169.34;;;6.26
28305;BMP280;15569;42.652;23.040;2024-03-17T03:07:06;93163.78;;;6.24
28305;BMP280;15569;42.652;23.040;2024-03-17T03:09:31;93157.66;;;6.14
28305;BMP280;15569;42.652;23.040;2024-03-17T03:11:59;93162.47;;;6.16
28305;BMP280;15569;42.652;23.040;2024-03-17T03:14:26;93154.81;;;6.02
28305;BMP280;15569;42.652;23.040;2024-03-17T03:16:52;93174.25;;;6.01
28305;BMP280;15569;42.652;23.040;2024-03-17T03:19:18;93160.66;;;6.09
28305;BMP280;15569;42.652;23.040;2024-03-17T03:21:44;93163.47;;;6.01
28305;BMP280;15569;42.652;23.040;2024-03-17T03:24:10;93158.66;;;6.09
28305;BMP280;15569;42.652;23.040;2024-03-17T03:26:36;93158.81;;;6.11
28305;BMP280;15569;42.652;23.040;2024-03-17T03:29:01;93160.63;;;6.18
28305;BMP280;15569;42.652;23.040;2024-03-17T03:31:27;93170.47;;;6.23
28305;BMP280;15569;42.652;23.040;2024-03-17T03:33:52;93163.50;;;6.20
28305;BMP280;15569;42.652;23.040;2024-03-17T03:36:18;93170.72;;;5.98
28305;BMP280;15569;42.652;23.040;2024-03-17T03:38:43;93148.53;;;5.81
28305;BMP280;15569;42.652;23.040;2024-03-17T03:41:11;93168.44;;;6.04
28305;BMP280;15569;42.652;23.040;2024-03-17T03:43:37;93161.63;;;6.03
28305;BMP280;15569;42.652;23.040;2024-03-17T03:46:03;93139.06;;;5.99
28305;BMP280;15569;42.652;23.040;2024-03-17T03:48:29;93173.56;;;6.20
28305;BMP280;15569;42.652;23.040;2024-03-17T03:50:54;93167.88;;;6.16
28305;BMP280;15569;42.652;23.040;2024-03-17T03:53:20;93176.13;;;6.18
28305;BMP280;15569;42.652;23.040;2024-03-17T03:55:46;93178.84;;;6.18
28305;BMP280;15569;42.652;23.040;2024-03-17T03:58:11;93178.53;;;6.14
28305;BMP280;15569;42.652;23.040;2024-03-17T04:00:41;93187.06;;;6.10
28305;BMP280;15569;42.652;23.040;2024-03-17T04:03:06;93171.28;;;6.06
28305;BMP280;15569;42.652;23.040;2024-03-17T04:05:32;93177.13;;;6.13
28305;BMP280;15569;42.652;23.040;2024-03-17T04:07:59;93187.22;;;6.12
28305;BMP280;15569;42.652;23.040;2024-03-17T04:10:25;93176.66;;;5.97
28305;BMP280;15569;42.652;23.040;2024-03-17T04:12:51;93182.94;;;5.99
28305;BMP280;15569;42.652;23.040;2024-03-17T04:15:17;93190.03;;;5.95
28305;BMP280;15569;42.652;23.040;2024-03-17T04:17:43;93193.44;;;5.95
28305;BMP280;15569;42.652;23.040;2024-03-17T04:20:09;93187.72;;;5.91
28305;BMP280;15569;42.652;23.040;2024-03-17T04:22:38;93193.44;;;5.95
28305;BMP280;15569;42.652;23.040;2024-03-17T04:25:03;93207.78;;;5.98
28305;BMP280;15569;42.652;23.040;2024-03-17T04:27:29;93200.97;;;5.97
28305;BMP280;15569;42.652;23.040;2024-03-17T04:30:01;93199.38;;;5.94
28305;BMP280;15569;42.652;23.040;2024-03-17T04:32:31;93202.66;;;5.92
28305;BMP280;15569;42.652;23.040;2024-03-17T04:34:56;93210.34;;;5.96
28305;BMP280;15569;42.652;23.040;2024-03-17T04:37:22;93209.06;;;6.06
28305;BMP280;15569;42.652;23.040;2024-03-17T04:39:47;93208.22;;;6.14
28305;BMP280;15569;42.652;23.040;2024-03-17T04:42:16;93206.78;;;6.03
28305;BMP280;15569;42.652;23.040;2024-03-17T04:44:45;93208.78;;;6.02
28305;BMP280;15569;42.652;23.040;2024-03-17T04:47:11;93213.34;;;6.10
28305;BMP280;15569;42.652;23.040;2024-03-17T04:49:36;93219.56;;;6.02
28305;BMP280;15569;42.652;23.040;2024-03-17T04:52:02;93217.75;;;6.05
28305;BMP280;15569;42.652;23.040;2024-03-17T04:54:28;93224.97;;;6.02
28305;BMP280;15569;42.652;23.040;2024-03-17T04:56:53;93230.81;;;6.09
28305;BMP280;15569;42.652;23.040;2024-03-17T04:59:19;93233.53;;;6.09
28305;BMP280;15569;42.652;23.040;2024-03-17T05:01:44;93239.47;;;6.17
28305;BMP280;15569;42.652;23.040;2024-03-17T05:04:09;93234.41;;;6.21
28305;BMP280;15569;42.652;23.040;2024-03-17T05:06:35;93241.50;;;6.26
28305;BMP280;15569;42.652;23.040;2024-03-17T05:09:02;93227.88;;;6.24
28305;BMP280;15569;42.652;23.040;2024-03-17T05:11:30;93247.91;;;6.40
28305;BMP280;15569;42.652;23.040;2024-03-17T05:13:56;93252.91;;;6.53
28305;BMP280;15569;42.652;23.040;2024-03-17T05:16:22;93246.63;;;6.60
28305;BMP280;15569;42.652;23.040;2024-03-17T05:18:49;93250.34;;;6.74
28305;BMP280;15569;42.652;23.040;2024-03-17T05:21:23;93245.34;;;6.90
28305;BMP280;15569;42.652;23.040;2024-03-17T05:23:49;93252.16;;;6.91
28305;BMP280;15569;42.652;23.040;2024-03-17T05:26:15;93245.75;;;6.96
28305;BMP280;15569;42.652;23.040;2024-03-17T05:28:40;93255.97;;;7.07
28305;BMP280;15569;42.652;23.040;2024-03-17T05:31:06;93256.41;;;7.13
28305;BMP280;15569;42.652;23.040;2024-03-17T05:33:31;93256.97;;;7.11
28305;BMP280;15569;42.652;23.040;2024-03-17T05:35:58;93248.44;;;7.15
28305;BMP280;15569;42.652;23.040;2024-03-17T05:38:26;93251.34;;;7.28
28305;BMP280;15569;42.652;23.040;2024-03-17T05:41:02;93250.09;;;7.39
28305;BMP280;15569;42.652;23.040;2024-03-17T05:43:29;93246.75;;;7.40
28305;BMP280;15569;42.652;23.040;2024-03-17T05:45:57;93255.56;;;7.51
28305;BMP280;15569;42.652;23.040;2024-03-17T05:48:23;93255.78;;;7.64
28305;BMP280;15569;42.652;23.040;2024-03-17T05:50:50;93262.59;;;7.75
28305;BMP280;15569;42.652;23.040;2024-03-17T05:53:17;93263.66;;;7.91
28305;BMP280;15569;42.652;23.040;2024-03-17T05:55:43;93262.38;;;7.92
28305;BMP280;15569;42.652;23.040;2024-03-17T05:58:09;93263.06;;;8.02
28305;BMP280;15569;42.652;23.040;2024-03-17T06:00:35;93261.13;;;8.14
28305;BMP280;15569;42.652;23.040;2024-03-17T06:03:00;93272.19;;;8.18
28305;BMP280;15569;42.652;23.040;2024-03-17T06:05:26;93266.00;;;8.27
28305;BMP280;15569;42.652;23.040;2024-03-17T06:07:52;93266.22;;;8.41
28305;BMP280;15569;42.652;23.040;2024-03-17T06:10:17;93261.66;;;8.43
28305;BMP280;15569;42.652;23.040;2024-03-17T06:12:42;93274.53;;;8.54
28305;BMP280;15569;42.652;23.040;2024-03-17T06:15:08;93267.94;;;8.57
28305;BMP280;15569;42.652;23.040;2024-03-17T06:17:34;93262.91;;;8.63
28305;BMP280;15569;42.652;23.040;2024-03-17T06:20:00;93269.38;;;8.58
28305;BMP280;15569;42.652;23.040;2024-03-17T06:22:27;93279.41;;;8.56
28305;BMP280;15569;42.652;23.040;2024-03-17T06:24:53;93278.75;;;8.78
28305;BMP280;15569;42.652;23.040;2024-03-17T06:27:18;93280.34;;;8.93
28305;BMP280;15569;42.652;23.040;2024-03-17T06:29:44;93281.88;;;8.96
28305;BMP280;15569;42.652;23.040;2024-03-17T06:32:10;93288.19;;;9.10
28305;BMP280;15569;42.652;23.040;2024-03-17T06:34:36;93292.75;;;9.40
28305;BMP280;15569;42.652;23.040;2024-03-17T06:37:02;93287.22;;;9.62
28305;BMP280;15569;42.652;23.040;2024-03-17T06:39:28;93285.09;;;9.60
28305;BMP280;15569;42.652;23.040;2024-03-17T06:41:53;93285.34;;;9.87
28305;BMP280;15569;42.652;23.040;2024-03-17T06:44:18;93284.28;;;9.69
28305;BMP280;15569;42.652;23.040;2024-03-17T06:46:45;93284.03;;;9.88
28305;BMP280;15569;42.652;23.040;2024-03-17T06:49:12;93288.63;;;10.09
28305;BMP280;15569;42.652;23.040;2024-03-17T06:51:37;93288.00;;;10.22
28305;BMP280;15569;42.652;23.040;2024-03-17T06:54:03;93298.88;;;10.34
28305;BMP280;15569;42.652;23.040;2024-03-17T06:56:29;93291.63;;;10.50
28305;BMP280;15569;42.652;23.040;2024-03-17T06:58:54;93295.81;;;10.76
28305;BMP280;15569;42.652;23.040;2024-03-17T07:01:19;93295.19;;;10.77
28305;BMP280;15569;42.652;23.040;2024-03-17T07:03:45;93296.47;;;10.88
28305;BMP280;15569;42.652;23.040;2024-03-17T07:06:10;93290.25;;;10.99
28305;BMP280;15569;42.652;23.040;2024-03-17T07:08:35;93297.69;;;11.24
28305;BMP280;15569;42.652;23.040;2024-03-17T07:11:06;93291.78;;;11.02
28305;BMP280;15569;42.652;23.040;2024-03-17T07:13:40;93297.53;;;11.08
28305;BMP280;15569;42.652;23.040;2024-03-17T07:16:07;93298.31;;;11.22
28305;BMP280;15569;42.652;23.040;2024-03-17T07:18:32;93296.81;;;11.33
28305;BMP280;15569;42.652;23.040;2024-03-17T07:21:03;93299.47;;;11.44
28305;BMP280;15569;42.652;23.040;2024-03-17T07:23:34;93305.94;;;11.51
28305;BMP280;15569;42.652;23.040;2024-03-17T07:26:00;93304.53;;;11.50
28305;BMP280;15569;42.652;23.040;2024-03-17T07:28:26;93301.19;;;11.51
28305;BMP280;15569;42.652;23.040;2024-03-17T07:30:54;93301.44;;;11.82
28305;BMP280;15569;42.652;23.040;2024-03-17T07:33:20;93301.06;;;12.02
28305;BMP280;15569;42.652;23.040;2024-03-17T07:35:54;93308.28;;;11.97
28305;BMP280;15569;42.652;23.040;2024-03-17T07:38:22;93306.78;;;11.80
28305;BMP280;15569;42.652;23.040;2024-03-17T07:41:01;93303.56;;;11.98
28305;BMP280;15569;42.652;23.040;2024-03-17T07:43:28;93304.06;;;11.80
28305;BMP280;15569;42.652;23.040;2024-03-17T07:46:02;93296.19;;;11.73
28305;BMP280;15569;42.652;23.040;2024-03-17T07:48:28;93302.13;;;11.97
28305;BMP280;15569;42.652;23.040;2024-03-17T07:50:58;93300.44;;;12.17
28305;BMP280;15569;42.652;23.040;2024-03-17T07:53:24;93291.16;;;12.22
28305;BMP280;15569;42.652;23.040;2024-03-17T07:56:00;93301.72;;;12.43
28305;BMP280;15569;42.652;23.040;2024-03-17T07:58:26;93295.63;;;12.58
28305;BMP280;15569;42.652;23.040;2024-03-17T08:00:53;93295.94;;;12.64
28305;BMP280;15569;42.652;23.040;2024-03-17T08:03:21;93289.91;;;12.67
28305;BMP280;15569;42.652;23.040;2024-03-17T08:05:50;93294.78;;;12.69
28305;BMP280;15569;42.652;23.040;2024-03-17T08:08:16;93275.72;;;12.55
28305;BMP280;15569;42.652;23.040;2024-03-17T08:10:42;93295.63;;;12.87
28305;BMP280;15569;42.652;23.040;2024-03-17T08:13:07;93294.19;;;12.86
28305;BMP280;15569;42.652;23.040;2024-03-17T08:15:34;93284.22;;;13.06
28305;BMP280;15569;42.652;23.040;2024-03-17T08:17:59;93287.97;;;13.28
28305;BMP280;15569;42.652;23.040;2024-03-17T08:20:25;93276.56;;;13.18
28305;BMP280;15569;42.652;23.040;2024-03-17T08:22:50;93276.50;;;13.16
28305;BMP280;15569;42.652;23.040;2024-03-17T08:25:15;93269.22;;;13.36
28305;BMP280;15569;42.652;23.040;2024-03-17T08:27:41;93276.16;;;13.71
28305;BMP280;15569;42.652;23.040;2024-03-17T08:30:08;93265.50;;;13.61
28305;BMP280;15569;42.652;23.040;2024-03-17T08:32:35;93263.19;;;13.87
28305;BMP280;15569;42.652;23.040;2024-03-17T08:35:00;93272.97;;;13.76
28305;BMP280;15569;42.652;23.040;2024-03-17T08:37:26;93264.97;;;13.80
28305;BMP280;15569;42.652;23.040;2024-03-17T08:39:52;93268.91;;;13.93
28305;BMP280;15569;42.652;23.040;2024-03-17T08:42:17;93266.22;;;14.10
28305;BMP280;15569;42.652;23.040;2024-03-17T08:44:46;93268.56;;;14.18
28305;BMP280;15569;42.652;23.040;2024-03-17T08:47:11;93245.25;;;14.32
28305;BMP280;15569;42.652;23.040;2024-03-17T08:49:37;93263.94;;;14.05
28305;BMP280;15569;42.652;23.040;2024-03-17T08:52:02;93256.53;;;13.43
28305;BMP280;15569;42.652;23.040;2024-03-17T08:54:28;93254.97;;;13.87
28305;BMP280;15569;42.652;23.040;2024-03-17T08:56:53;93258.22;;;13.99
28305;BMP280;15569;42.652;23.040;2024-03-17T08:59:18;93254.66;;;14.12
28305;BMP280;15569;42.652;23.040;2024-03-17T09:01:44;93252.72;;;14.32
28305;BMP280;15569;42.652;23.040;2024-03-17T09:04:09;93254.41;;;14.74
28305;BMP280;15569;42.652;23.040;2024-03-17T09:06:36;93254.41;;;14.74
28305;BMP280;15569;42.652;23.040;2024-03-17T09:09:02;93249.00;;;14.76
28305;BMP280;15569;42.652;23.040;2024-03-17T09:11:28;93248.09;;;14.70
28305;BMP280;15569;42.652;23.040;2024-03-17T09:13:54;93257.63;;;14.69
28305;BMP280;15569;42.652;23.040;2024-03-17T09:16:20;93250.63;;;14.66
28305;BMP280;15569;42.652;23.040;2024-03-17T09:18:47;93251.09;;;14.95
28305;BMP280;15569;42.652;23.040;2024-03-17T09:21:14;93252.50;;;14.96
28305;BMP280;15569;42.652;23.040;2024-03-17T09:23:41;93247.66;;;14.77
28305;BMP280;15569;42.652;23.040;2024-03-17T09:26:08;93245.47;;;15.28
28305;BMP280;15569;42.652;23.040;2024-03-17T09:28:34;93253.06;;;14.93
28305;BMP280;15569;42.652;23.040;2024-03-17T09:31:00;93236.06;;;15.14
28305;BMP280;15569;42.652;23.040;2024-03-17T09:33:27;93245.84;;;15.01
28305;BMP280;15569;42.652;23.040;2024-03-17T09:35:57;93227.19;;;15.15
28305;BMP280;15569;42.652;23.040;2024-03-17T09:38:23;93244.44;;;15.00
28305;BMP280;15569;42.652;23.040;2024-03-17T09:40:49;93240.19;;;15.15
28305;BMP280;15569;42.652;23.040;2024-03-17T09:43:17;93239.31;;;15.48
28305;BMP280;15569;42.652;23.040;2024-03-17T09:45:43;93240.44;;;15.03
28305;BMP280;15569;42.652;23.040;2024-03-17T09:48:14;93236.34;;;14.50
28305;BMP280;15569;42.652;23.040;2024-03-17T09:50:40;93240.25;;;14.45
28305;BMP280;15569;42.652;23.040;2024-03-17T09:53:06;93248.78;;;14.70
28305;BMP280;15569;42.652;23.040;2024-03-17T09:55:32;93236.56;;;14.73
28305;BMP280;15569;42.652;23.040;2024-03-17T09:57:58;93238.59;;;14.55
28305;BMP280;15569;42.652;23.040;2024-03-17T10:00:24;93239.19;;;14.89
28305;BMP280;15569;42.652;23.040;2024-03-17T10:02:49;93241.03;;;15.19
28305;BMP280;15569;42.652;23.040;2024-03-17T10:05:22;93239.50;;;15.54
28305;BMP280;15569;42.652;23.040;2024-03-17T10:07:48;93230.19;;;15.04
28305;BMP280;15569;42.652;23.040;2024-03-17T10:10:15;93232.91;;;15.21
28305;BMP280;15569;42.652;23.040;2024-03-17T10:12:44;93237.81;;;14.70
28305;BMP280;15569;42.652;23.040;2024-03-17T10:15:14;93232.25;;;14.86
28305;BMP280;15569;42.652;23.040;2024-03-17T10:17:39;93242.63;;;15.07
28305;BMP280;15569;42.652;23.040;2024-03-17T10:20:31;93240.78;;;14.76
28305;BMP280;15569;42.652;23.040;2024-03-17T10:23:00;93239.88;;;15.07
28305;BMP280;15569;42.652;23.040;2024-03-17T10:25:30;93234.59;;;15.31
28305;BMP280;15569;42.652;23.040;2024-03-17T10:27:56;93236.22;;;15.57
28305;BMP280;15569;42.652;23.040;2024-03-17T10:30:22;93236.34;;;15.42
28305;BMP280;15569;42.652;23.040;2024-03-17T10:32:57;93235.25;;;15.49
28305;BMP280;15569;42.652;23.040;2024-03-17T10:35:36;93236.78;;;15.54
28305;BMP280;15569;42.652;23.040;2024-03-17T10:38:08;93234.31;;;15.62
28305;BMP280;15569;42.652;23.040;2024-03-17T10:40:34;93231.44;;;15.58
28305;BMP280;15569;42.652;23.040;2024-03-17T10:43:04;93231.34;;;15.16
28305;BMP280;15569;42.652;23.040;2024-03-17T10:45:31;93231.47;;;15.20
28305;BMP280;15569;42.652;23.040;2024-03-17T10:48:02;93236.22;;;15.38
28305;BMP280;15569;42.652;23.040;2024-03-17T10:50:30;93233.88;;;15.50
28305;BMP280;15569;42.652;23.040;2024-03-17T10:53:01;93227.56;;;15.45
28305;BMP280;15569;42.652;23.040;2024-03-17T10:55:32;93237.53;;;15.37
28305;BMP280;15569;42.652;23.040;2024-03-17T10:58:00;93240.28;;;15.37
28305;BMP280;15569;42.652;23.040;2024-03-17T11:00:29;93232.59;;;15.33
28305;BMP280;15569;42.652;23.040;2024-03-17T11:02:55;93232.66;;;15.53
28305;BMP280;15569;42.652;23.040;2024-03-17T11:05:23;93222.94;;;15.50
28305;BMP280;15569;42.652;23.040;2024-03-17T11:07:52;93233.16;;;15.29
28305;BMP280;15569;42.652;23.040;2024-03-17T11:17:45;93226.38;;;15.70
28305;BMP280;15569;42.652;23.040;2024-03-17T11:20:15;93222.31;;;15.71
28305;BMP280;15569;42.652;23.040;2024-03-17T11:22:42;93219.84;;;15.59
28305;BMP280;15569;42.652;23.040;2024-03-17T11:27:55;93220.75;;;14.89
28305;BMP280;15569;42.652;23.040;2024-03-17T11:30:43;93226.88;;;14.70
28305;BMP280;15569;42.652;23.040;2024-03-17T11:51:46;93207.41;;;14.80
28305;BMP280;15569;42.652;23.040;2024-03-17T11:54:17;93209.66;;;14.85
28305;BMP280;15569;42.652;23.040;2024-03-17T11:56:47;93210.78;;;14.78
28305;BMP280;15569;42.652;23.040;2024-03-17T11:59:13;93208.38;;;14.88
28305;BMP280;15569;42.652;23.040;2024-03-17T12:01:39;93210.63;;;14.74
28305;BMP280;15569;42.652;23.040;2024-03-17T12:04:06;93213.88;;;14.71
28305;BMP280;15569;42.652;23.040;2024-03-17T12:06:32;93212.28;;;14.64
28305;BMP280;15569;42.652;23.040;2024-03-17T12:09:24;93214.31;;;14.63
28305;BMP280;15569;42.652;23.040;2024-03-17T12:12:02;93214.91;;;14.79
28305;BMP280;15569;42.652;23.040;2024-03-17T12:14:29;93210.63;;;14.74
28305;BMP280;15569;42.652;23.040;2024-03-17T12:16:57;93210.63;;;14.74
28305;BMP280;15569;42.652;23.040;2024-03-17T12:19:24;93201.34;;;14.64
28305;BMP280;15569;42.652;23.040;2024-03-17T12:21:50;93206.34;;;14.34
28305;BMP280;15569;42.652;23.040;2024-03-17T12:24:20;93204.38;;;14.19
28305;BMP280;15569;42.652;23.040;2024-03-17T12:26:47;93201.84;;;14.07
28305;BMP280;15569;42.652;23.040;2024-03-17T12:33:51;93200.16;;;13.83
28305;BMP280;15569;42.652;23.040;2024-03-17T12:36:16;93197.63;;;14.04
28305;BMP280;15569;42.652;23.040;2024-03-17T12:38:42;93198.69;;;13.80
28305;BMP280;15569;42.652;23.040;2024-03-17T12:41:16;93193.38;;;13.84
28305;BMP280;15569;42.652;23.040;2024-03-17T12:43:48;93190.75;;;14.03
28305;BMP280;15569;42.652;23.040;2024-03-17T13:02:25;93183.44;;;13.75
28305;BMP280;15569;42.652;23.040;2024-03-17T13:05:13;93186.78;;;14.06
28305;BMP280;15569;42.652;23.040;2024-03-17T13:07:39;93174.94;;;14.35
28305;BMP280;15569;42.652;23.040;2024-03-17T13:10:05;93183.38;;;14.41
28305;BMP280;15569;42.652;23.040;2024-03-17T13:12:35;93178.13;;;14.47
28305;BMP280;15569;42.652;23.040;2024-03-17T13:15:01;93172.59;;;14.45
28305;BMP280;15569;42.652;23.040;2024-03-17T13:17:27;93180.91;;;14.49
28305;BMP280;15569;42.652;23.040;2024-03-17T13:26:18;93167.78;;;13.93
28305;BMP280;15569;42.652;23.040;2024-03-17T13:28:44;93169.00;;;13.90
28305;BMP280;15569;42.652;23.040;2024-03-17T13:31:10;93163.44;;;14.03
28305;BMP280;15569;42.652;23.040;2024-03-17T13:33:35;93171.09;;;14.07
28305;BMP280;15569;42.652;23.040;2024-03-17T13:36:01;93165.16;;;14.30
28305;BMP280;15569;42.652;23.040;2024-03-17T13:38:26;93172.09;;;14.51
28305;BMP280;15569;42.652;23.040;2024-03-17T13:40:53;93166.56;;;14.31
28305;BMP280;15569;42.652;23.040;2024-03-17T13:43:18;93171.25;;;14.46
28305;BMP280;15569;42.652;23.040;2024-03-17T13:45:44;93159.63;;;14.46
28305;BMP280;15569;42.652;23.040;2024-03-17T13:48:10;93161.72;;;14.47
28305;BMP280;15569;42.652;23.040;2024-03-17T13:50:36;93159.56;;;14.81
28305;BMP280;15569;42.652;23.040;2024-03-17T13:53:03;93159.44;;;14.96
28305;BMP280;15569;42.652;23.040;2024-03-17T13:55:28;93163.34;;;14.91
28305;BMP280;15569;42.652;23.040;2024-03-17T13:57:57;93140.66;;;14.69
28305;BMP280;15569;42.652;23.040;2024-03-17T14:00:24;93152.56;;;15.15
28305;BMP280;15569;42.652;23.040;2024-03-17T14:02:52;93154.03;;;15.79
28305;BMP280;15569;42.652;23.040;2024-03-17T14:05:20;93153.19;;;15.53
28305;BMP280;15569;42.652;23.040;2024-03-17T14:07:47;93147.09;;;15.35
28305;BMP280;15569;42.652;23.040;2024-03-17T14:10:14;93144.25;;;15.52
28305;BMP280;15569;42.652;23.040;2024-03-17T14:12:40;93134.00;;;15.33
28305;BMP280;15569;42.652;23.040;2024-03-17T14:15:06;93127.09;;;15.52
28305;BMP280;15569;42.652;23.040;2024-03-17T14:17:36;93145.75;;;15.77
28305;BMP280;15569;42.652;23.040;2024-03-17T14:20:01;93136.34;;;15.62
28305;BMP280;15569;42.652;23.040;2024-03-17T14:22:28;93133.22;;;15.72
28305;BMP280;15569;42.652;23.040;2024-03-17T14:24:54;93137.47;;;15.75
28305;BMP280;15569;42.652;23.040;2024-03-17T14:27:19;93137.50;;;15.55
28305;BMP280;15569;42.652;23.040;2024-03-17T14:29:46;93140.13;;;15.73
28305;BMP280;15569;42.652;23.040;2024-03-17T14:32:11;93137.91;;;17.31
28305;BMP280;15569;42.652;23.040;2024-03-17T14:34:39;93137.84;;;17.82
28305;BMP280;15569;42.652;23.040;2024-03-17T14:37:04;93134.53;;;18.82
28305;BMP280;15569;42.652;23.040;2024-03-17T14:39:30;93133.84;;;19.57
28305;BMP280;15569;42.652;23.040;2024-03-17T14:41:56;93136.09;;;20.12
28305;BMP280;15569;42.652;23.040;2024-03-17T14:44:22;93128.53;;;20.11
28305;BMP280;15569;42.652;23.040;2024-03-17T14:46:48;93130.81;;;20.28
28305;BMP280;15569;42.652;23.040;2024-03-17T14:49:17;93126.31;;;18.84
28305;BMP280;15569;42.652;23.040;2024-03-17T14:51:42;93123.03;;;18.58
28305;BMP280;15569;42.652;23.040;2024-03-17T14:54:07;93134.47;;;19.14
28305;BMP280;15569;42.652;23.040;2024-03-17T14:56:34;93126.06;;;19.06